logo
Search for airport 
image banner adimage banner adimage banner ad
image banner ad

CYAU - South Shore Regional

Located in Liverpool, Canada

ICAO - CYAU, IATA -

Data provided by Airmate  

General information

Coordinates: N44°13'50" W64°51'22"
Elevation is 325 feet MSL.
Magnetic variation is -17.5239° East
View others Airports in Nova Scotia

Operational data

Special qualification required
Current time UTC:
Current local time:
Weather at : - ( 0 km )
METAR: UUOK 171941Z AUTO 22004MPS 9999 // ///010/// 19/18 Q1009 RMK QFE739/0985
View NOTAMs / SUP AIP / TFR affecting this airport [VIEW]
Communications frequencies: [VIEW]

Runways:

RWY identifierQFULength (ft)Width (ft)SurfaceLDA (ft)
0753°393375ASPH3933
25233°393375ASPH3933

Airport contact information

Address: Liverpool Canada

Satellite view of CYAU